Bellmunt (Osona)





Hora UTC 22:20
Temperatura 19.6 ºC
Humedad 78.0 %
Presión 1012.1 hPa
Pluja 0.0 mm
Velocidad viento 0.0 km/h
Dirección viento WNW

Datos diarios 2024-07-24



Hora UTC (invierno +1h; verano +2h)
Temperatura (ºC) Humedad (%) Presión (hPa) Velocidad viento (km/h) Precipitación (mm)
Hora UTC Aire Humedad Presión Vel. Dir. Vel. Max Dir. Intent. máx 5 min.
00:05 20.7 70.0 1016.1 8.0 WSW 8.0 0.0
00:10 20.7 71.0 1016.0 6.4 W 11.3 0.0
00:15 20.5 71.0 1016.0 6.4 W 9.7 0.0
00:20 20.4 73.0 1015.9 8.0 WNW 11.3 0.0
00:25 20.2 74.0 1015.8 8.0 WNW 11.3 0.0
00:30 20.1 74.0 1015.8 11.3 WNW 11.3 0.0
00:35 20.1 74.0 1015.7 11.3 WNW 12.9 0.0
00:40 20.1 75.0 1015.7 11.3 WNW 12.9 0.0
00:45 20.1 74.0 1015.6 12.9 WNW 12.9 0.0
00:50 20.0 74.0 1015.6 12.9 WNW 12.9 0.0
00:55 19.9 73.0 1015.5 12.9 WNW 14.5 0.0
01:00 19.9 73.0 1015.6 12.9 WNW 14.5 0.0
01:05 19.9 72.0 1015.5 12.9 WNW 14.5 0.0
01:10 19.8 72.0 1015.5 12.9 WNW 14.5 0.0
01:15 19.8 70.0 1015.5 12.9 WNW 14.5 0.0
01:20 19.8 70.0 1015.5 12.9 WNW 14.5 0.0
01:25 19.8 71.0 1015.4 12.9 WNW 14.5 0.0
01:30 19.9 72.0 1015.5 12.9 W 14.5 0.0
01:35 19.9 71.0 1015.5 14.5 W 14.5 0.0
01:40 19.9 71.0 1015.4 14.5 W 16.1 0.0
01:45 19.9 70.0 1015.4 14.5 W 16.1 0.0
01:50 19.9 69.0 1015.4 14.5 W 16.1 0.0
01:55 19.8 69.0 1015.4 12.9 W 16.1 0.0
02:00 19.7 70.0 1015.3 14.5 W 16.1 0.0
02:05 19.6 70.0 1015.2 12.9 W 16.1 0.0
02:10 19.6 71.0 1015.2 12.9 W 16.1 0.0
02:15 19.6 70.0 1015.1 14.5 WNW 16.1 0.0
02:20 19.8 70.0 1015.0 16.1 W 19.3 0.0
02:25 19.7 70.0 1015.0 16.1 W 19.3 0.0
02:30 19.7 70.0 1015.0 17.7 W 17.7 0.0
02:35 19.8 71.0 1015.0 17.7 W 19.3 0.0
02:40 19.8 72.0 1014.9 19.3 W 19.3 0.0
02:45 19.8 73.0 1014.9 19.3 W 20.9 0.0
02:50 19.7 73.0 1014.8 19.3 W 20.9 0.0
02:55 19.7 73.0 1014.9 17.7 W 20.9 0.0
03:00 19.7 73.0 1014.8 19.3 W 20.9 0.0
03:05 19.7 73.0 1014.7 17.7 W 20.9 0.0
03:10 19.6 74.0 1014.7 19.3 W 20.9 0.0
03:15 19.6 74.0 1014.7 17.7 W 20.9 0.0
03:20 19.6 74.0 1014.7 19.3 W 20.9 0.0
03:25 19.5 74.0 1014.8 16.1 W 22.5 0.0
03:30 19.5 74.0 1014.7 17.7 W 20.9 0.0
03:35 19.4 74.0 1014.7 17.7 W 20.9 0.0
03:40 19.4 74.0 1014.8 17.7 W 19.3 0.0
03:45 19.5 74.0 1014.8 17.7 W 20.9 0.0
03:50 19.4 74.0 1014.8 17.7 W 20.9 0.0
03:55 19.4 74.0 1014.7 16.1 W 19.3 0.0
04:00 19.4 74.0 1014.8 17.7 W 20.9 0.0
04:05 19.3 74.0 1014.8 17.7 W 20.9 0.0
04:10 19.2 75.0 1014.9 17.7 W 20.9 0.0
04:15 19.2 74.0 1014.8 17.7 W 20.9 0.0
04:20 19.2 75.0 1014.9 17.7 W 19.3 0.0
04:25 19.2 75.0 1014.9 17.7 W 19.3 0.0
04:30 19.4 73.0 1014.9 17.7 WSW 22.5 0.0
04:35 19.7 65.0 1014.9 16.1 SW 22.5 0.0
04:40 19.9 63.0 1014.9 17.7 WSW 22.5 0.0
04:45 20.3 57.0 1014.9 19.3 SW 24.1 0.0
04:50 20.3 60.0 1015.0 16.1 WSW 24.1 0.0
04:55 20.4 56.0 1015.0 22.5 SW 25.7 0.0
05:00 20.5 55.0 1014.9 24.1 SW 25.7 0.0
05:05 20.5 54.0 1014.9 16.1 W 25.7 0.0
05:10 20.4 53.0 1014.8 20.9 SW 24.1 0.0
05:15 20.4 54.0 1014.8 17.7 WSW 24.1 0.0
05:20 20.4 56.0 1014.9 22.5 WSW 24.1 0.0
05:25 20.4 57.0 1014.9 20.9 SW 24.1 0.0
05:30 20.5 57.0 1014.8 14.5 WSW 24.1 0.0
05:35 20.6 55.0 1014.7 25.7 WSW 29.0 0.0
05:40 20.6 55.0 1014.9 14.5 WSW 29.0 0.0
05:45 20.6 52.0 1014.8 24.1 WSW 25.7 0.0
05:50 20.8 51.0 1014.8 22.5 SW 27.4 0.0
05:55 20.8 52.0 1014.9 16.1 WSW 25.7 0.0
06:00 20.8 52.0 1014.9 19.3 SW 27.4 0.0
06:05 20.9 52.0 1014.9 22.5 WSW 27.4 0.0
06:10 20.8 52.0 1014.9 12.9 WSW 27.4 0.0
06:15 20.8 52.0 1014.9 14.5 WSW 19.3 0.0
06:20 20.8 53.0 1014.9 12.9 W 19.3 0.0
06:25 20.7 53.0 1014.8 9.7 SW 17.7 0.0
06:30 20.7 52.0 1014.9 12.9 SW 17.7 0.0
06:35 20.6 55.0 1014.9 8.0 SW 16.1 0.0
06:40 20.6 54.0 1014.9 4.8 W 14.5 0.0
06:45 20.5 55.0 1014.9 8.0 WSW 14.5 0.0
06:50 20.4 58.0 1015.0 4.8 WSW 11.3 0.0
06:55 20.4 58.0 1014.9 0.0 SSW 8.0 0.0
07:00 20.5 58.0 1014.8 0.0 SSW 8.0 0.0
07:05 20.6 59.0 1014.9 0.0 SSW 11.3 0.0
07:10 20.7 59.0 1014.8 0.0 SW 11.3 0.0
07:15 20.8 60.0 1014.9 0.0 SSW 8.0 0.0
07:20 20.8 60.0 1014.9 0.0 SSW 8.0 0.0
07:25 20.7 61.0 1014.8 0.0 SSW 6.4 0.0
07:30 20.8 62.0 1014.8 0.0 NNW 6.4 0.0
07:35 20.9 61.0 1014.8 0.0 WNW 0.0 0.0
07:40 21.1 61.0 1014.9 0.0 W 0.0 0.0
07:45 21.3 60.0 1014.8 0.0 WNW 0.0 0.0
07:50 21.3 58.0 1014.8 0.0 W 0.0 0.0
07:55 21.2 60.0 1014.8 0.0 N 0.0 0.0
08:00 21.4 59.0 1014.8 0.0 WSW 0.0 0.0
08:05 21.7 60.0 1014.7 0.0 SSW 0.0 0.0
08:10 21.8 59.0 1014.6 1.6 SSW 3.2 0.0
08:15 21.7 58.0 1014.7 0.0 S 6.4 0.0
08:20 21.7 61.0 1014.6 8.0 S 9.7 0.0
08:25 21.3 62.0 1014.5 6.4 SSW 11.3 0.0
08:30 21.1 63.0 1014.5 0.0 S 9.7 0.0
08:35 21.4 64.0 1014.4 3.2 S 9.7 0.0
08:40 21.6 62.0 1014.4 0.0 WSW 11.3 0.0
08:45 21.8 62.0 1014.3 9.7 SSW 11.3 0.0
08:50 21.8 62.0 1014.3 0.0 WNW 9.7 0.0
08:55 22.0 62.0 1014.4 0.0 WNW 9.7 0.0
09:00 22.1 61.0 1014.3 0.0 WNW 9.7 0.0
09:05 21.9 62.0 1014.3 0.0 S 9.7 0.0
09:10 22.2 62.0 1014.3 0.0 W 9.7 0.0
09:15 22.4 61.0 1014.3 0.0 SW 8.0 0.0
09:20 22.4 61.0 1014.3 9.7 SSW 11.3 0.0
09:25 22.8 60.0 1014.3 0.0 SW 11.3 0.0
09:30 23.1 58.0 1014.2 0.0 WSW 16.1 0.0
09:35 23.1 58.0 1014.2 3.2 WSW 16.1 0.0
09:40 22.9 58.0 1014.2 0.0 SSE 11.3 0.0
09:45 23.1 57.0 1014.1 3.2 WSW 11.3 0.0
09:50 22.8 57.0 1014.2 8.0 SSW 14.5 0.0
09:55 23.1 57.0 1014.1 8.0 S 17.7 0.0
10:00 22.8 56.0 1014.1 6.4 SSW 19.3 0.0
10:05 23.2 54.0 1014.1 8.0 S 19.3 0.0
10:10 23.2 55.0 1014.0 8.0 WSW 14.5 0.0
10:15 23.4 53.0 1014.0 8.0 SSW 16.1 0.0
10:20 23.3 56.0 1014.0 0.0 SW 22.5 0.0
10:25 23.2 53.0 1014.0 8.0 SW 22.5 0.0
10:30 23.2 53.0 1013.9 19.3 SSW 27.4 0.0
10:35 23.0 53.0 1013.9 6.4 SSW 27.4 0.0
10:40 23.3 52.0 1013.8 14.5 SW 22.5 0.0
10:45 22.9 51.0 1013.9 9.7 S 25.7 0.0
10:50 23.2 50.0 1013.8 12.9 S 22.5 0.0
10:55 23.3 50.0 1013.8 6.4 SW 20.9 0.0
11:00 23.8 50.0 1013.9 8.0 S 17.7 0.0
11:05 23.8 49.0 1013.7 17.7 S 24.1 0.0
11:10 23.8 52.0 1013.8 8.0 SW 25.7 0.0
11:15 24.6 50.0 1013.8 9.7 SSW 25.7 0.0
11:20 25.2 47.0 1013.8 1.6 S 14.5 0.0
11:25 25.1 50.0 1013.8 0.0 SSW 14.5 0.0
11:30 25.2 49.0 1013.7 9.7 SSW 12.9 0.0
11:35 24.6 49.0 1013.6 0.0 SW 14.5 0.0
11:40 24.2 50.0 1013.7 3.2 SSW 11.3 0.0
11:45 24.8 51.0 1013.6 0.0 SSE 14.5 0.0
11:50 24.8 50.0 1013.5 16.1 S 19.3 0.0
11:55 24.7 49.0 1013.5 12.9 S 19.3 0.0
12:00 25.2 47.0 1013.4 4.8 SSE 16.1 0.0
12:05 24.8 49.0 1013.4 14.5 S 17.7 0.0
12:10 24.8 48.0 1013.4 8.0 SSE 17.7 0.0
12:15 24.9 49.0 1013.2 12.9 SSW 24.1 0.0
12:20 25.2 47.0 1013.3 8.0 SSE 24.1 0.0
12:25 25.2 47.0 1013.2 9.7 SSW 22.5 0.0
12:30 25.4 48.0 1013.2 6.4 SW 17.7 0.0
12:35 25.7 47.0 1013.2 6.4 SW 16.1 0.0
12:40 26.0 45.0 1013.1 6.4 WNW 16.1 0.0
12:45 26.0 46.0 1013.1 8.0 SSW 14.5 0.0
12:50 26.0 44.0 1013.0 4.8 S 14.5 0.0
12:55 25.5 45.0 1013.0 16.1 S 22.5 0.0
13:00 25.4 48.0 1013.0 11.3 S 22.5 0.0
13:05 25.7 47.0 1013.0 3.2 ESE 12.9 0.0
13:10 25.4 47.0 1012.9 9.7 W 20.9 0.0
13:15 25.9 46.0 1012.9 8.0 S 24.1 0.0
13:20 26.6 44.0 1012.8 9.7 SSW 24.1 0.0
13:25 26.0 46.0 1012.7 11.3 S 22.5 0.0
13:30 26.1 47.0 1012.6 3.2 ESE 22.5 0.0
13:35 26.8 46.0 1012.6 4.8 SSW 20.9 0.0
13:40 26.9 43.0 1012.6 6.4 S 12.9 0.0
13:45 26.1 52.0 1012.6 8.0 SSW 19.3 0.0
13:50 25.6 56.0 1012.5 0.0 S 19.3 0.0
13:55 24.5 58.0 1012.4 3.2 ESE 12.9 0.0
14:00 24.1 60.0 1012.4 11.3 E 16.1 0.0
14:05 24.0 61.0 1012.4 6.4 ENE 17.7 0.0
14:10 24.1 60.0 1012.3 0.0 ENE 14.5 0.0
14:15 24.2 62.0 1012.3 0.0 NW 9.7 0.0
14:20 24.0 62.0 1012.1 1.6 E 1.6 0.0
14:25 23.8 64.0 1012.0 1.6 ESE 3.2 0.0
14:30 24.1 64.0 1012.0 1.6 SE 3.2 0.0
14:35 23.9 64.0 1011.9 12.9 E 19.3 0.0
14:40 23.8 64.0 1011.9 12.9 ENE 19.3 0.0
14:45 24.1 63.0 1012.0 0.0 ENE 19.3 0.0
14:50 24.3 63.0 1011.9 1.6 S 14.5 0.0
14:55 24.3 64.0 1011.8 0.0 E 16.1 0.0
15:00 24.2 65.0 1011.9 1.6 ESE 16.1 0.0
15:05 24.3 65.0 1011.8 1.6 ESE 9.7 0.0
15:10 24.3 66.0 1011.9 1.6 S 8.0 0.0
15:15 24.5 66.0 1011.8 1.6 SE 8.0 0.0
15:20 23.9 66.0 1011.9 1.6 ESE 6.4 0.0
15:25 23.5 68.0 1011.8 0.0 ESE 9.7 0.0
15:30 23.6 67.0 1011.8 3.2 ESE 8.0 0.0
15:35 23.7 67.0 1011.7 0.0 ESE 12.9 0.0
15:40 23.4 67.0 1011.7 6.4 ESE 12.9 0.0
15:45 23.0 68.0 1011.7 9.7 ESE 16.1 0.0
15:50 22.8 69.0 1011.8 1.6 NE 14.5 0.0
15:55 22.9 70.0 1011.7 4.8 S 12.9 0.0
16:00 22.9 69.0 1011.7 3.2 SSE 16.1 0.0
16:05 22.8 69.0 1011.7 4.8 E 16.1 0.0
16:10 22.6 69.0 1011.7 20.9 ENE 20.9 0.0
16:15 22.5 70.0 1011.7 0.0 NE 20.9 0.0
16:20 22.4 70.0 1011.6 0.0 ESE 14.5 0.0
16:25 22.4 70.0 1011.6 0.0 ESE 6.4 0.0
16:30 22.4 70.0 1011.6 11.3 ESE 24.1 0.0
16:35 22.3 70.0 1011.5 0.0 E 24.1 0.0
16:40 22.3 70.0 1011.5 0.0 NE 20.9 0.0
16:45 22.2 70.0 1011.4 0.0 NE 20.9 0.0
16:50 21.9 70.0 1011.4 1.6 NE 3.2 0.0
16:55 21.9 70.0 1011.4 1.6 ENE 3.2 0.0
17:00 21.9 70.0 1011.4 0.0 NE 3.2 0.0
17:05 21.8 70.0 1011.5 0.0 NE 3.2 0.0
17:10 21.7 70.0 1011.4 0.0 NE 4.8 0.0
17:15 21.7 70.0 1011.4 0.0 ENE 4.8 0.0
17:20 21.6 71.0 1011.4 0.0 ENE 4.8 0.0
17:25 21.6 70.0 1011.3 0.0 NE 3.2 0.0
17:30 21.5 71.0 1011.4 0.0 NNE 3.2 0.0
17:35 21.6 71.0 1011.4 3.2 NE 4.8 0.0
17:40 21.6 70.0 1011.5 0.0 NE 4.8 0.0
17:45 21.6 71.0 1011.4 3.2 ENE 3.2 0.0
17:50 21.4 71.0 1011.3 0.0 NE 3.2 0.0
17:55 21.4 72.0 1011.4 1.6 NE 3.2 0.0
18:00 21.3 71.0 1011.4 0.0 NE 4.8 0.0
18:05 21.3 72.0 1011.5 0.0 NE 4.8 0.0
18:10 21.3 72.0 1011.6 0.0 NNE 3.2 0.0
18:15 21.2 72.0 1011.5 0.0 NNE 1.6 0.0
18:20 21.3 71.0 1011.7 0.0 NNE 1.6 0.0
18:25 21.2 72.0 1011.7 0.0 NNE 0.0 0.0
18:30 21.1 72.0 1011.7 0.0 NE 1.6 0.0
18:35 21.0 72.0 1011.8 0.0 NE 1.6 0.0
18:40 21.1 72.0 1011.9 0.0 NE 0.0 0.0
18:45 21.1 72.0 1011.9 0.0 NE 1.6 0.0
18:50 21.2 70.0 1011.9 0.0 NE 0.0 0.0
18:55 21.4 70.0 1011.9 0.0 NE 0.0 0.0
19:00 21.2 71.0 1011.9 0.0 NE 0.0 0.0
19:05 21.1 70.0 1012.0 0.0 NE 0.0 0.0
19:10 21.2 71.0 1011.9 0.0 NE 1.6 0.0
19:15 21.2 71.0 1012.0 0.0 NE 1.6 0.0
19:20 21.0 71.0 1012.0 0.0 NE 1.6 0.0
19:25 21.1 71.0 1012.0 0.0 NE 1.6 0.0
19:30 21.3 69.0 1012.2 0.0 NNE 1.6 0.0
19:35 21.5 68.0 1012.2 0.0 NE 1.6 0.0
19:40 21.6 68.0 1012.2 0.0 NE 0.0 0.0
19:45 21.7 68.0 1012.2 0.0 ENE 0.0 0.0
19:50 21.6 68.0 1012.2 0.0 NNE 0.0 0.0
19:55 21.6 70.0 1012.3 0.0 NE 0.0 0.0
20:00 21.3 71.0 1012.3 0.0 NE 1.6 0.0
20:05 20.8 72.0 1012.3 0.0 NE 0.0 0.0
20:10 20.6 74.0 1012.2 0.0 NNE 0.0 0.0
20:15 20.3 74.0 1012.3 0.0 NE 0.0 0.0
20:20 20.1 76.0 1012.3 0.0 NE 0.0 0.0
20:25 20.1 76.0 1012.3 0.0 NNE 0.0 0.0
20:30 20.1 76.0 1012.3 0.0 NNE 0.0 0.0
20:35 20.1 76.0 1012.2 0.0 NNE 0.0 0.0
20:40 20.1 76.0 1012.2 0.0 N 0.0 0.0
20:45 20.1 76.0 1012.3 0.0 NNW 0.0 0.0
20:50 20.1 76.0 1012.3 0.0 N 0.0 0.0
20:55 20.1 76.0 1012.3 0.0 N 0.0 0.0
21:00 19.9 77.0 1012.3 0.0 N 0.0 0.0
21:05 19.8 78.0 1012.3 0.0 NNW 0.0 0.0
21:10 19.8 78.0 1012.3 0.0 NNW 0.0 0.0
21:15 19.8 77.0 1012.2 0.0 NNW 0.0 0.0
21:20 19.7 78.0 1012.3 0.0 NNW 0.0 0.0
21:25 19.7 78.0 1012.2 0.0 NNW 0.0 0.0
21:30 19.7 78.0 1012.2 0.0 NNW 0.0 0.0
21:35 19.7 78.0 1012.3 0.0 NW 0.0 0.0
21:40 19.6 78.0 1012.2 0.0 NW 0.0 0.0
21:45 19.6 78.0 1012.1 0.0 NW 0.0 0.0
21:50 19.7 78.0 1012.1 0.0 NW 0.0 0.0
21:55 19.6 78.0 1012.2 0.0 NW 0.0 0.0
22:00 19.7 78.0 1012.2 0.0 WNW 0.0 0.0
22:05 19.7 78.0 1012.2 0.0 WNW 0.0 0.0
22:10 19.7 78.0 1012.3 0.0 WNW 0.0 0.0
22:15 19.6 77.0 1012.2 0.0 WNW 0.0 0.0
22:20 19.6 78.0 1012.1 0.0 WNW 0.0 0.0
Máxima 27.2 78.0 1016.1 25.7 WSW 29.0 0.0
Mínima 19.2 43.0 1011.3
Total 0.0